Time;durP1;ratioP1;P1;durP2;ratioP2;P2;SDS_P1;SDS_P2;PMS_P1;PMS_P2;Temp;Humidity;BMP_temperature;BMP_pressure;BME280_temperature;BME280_humidity;BME280_pressure;Samples;Min_cycle;Max_cycle;Signal;HPM_P1;HPM_P2
2022/08/14 00:00:54;;;;;;;10.25;9.23;;;;;;;16.89;100.00;63743.59;4891598;29;20210;-74
2022/08/14 00:03:23;;;;;;;12.73;8.88;;;;;;;16.88;100.00;63742.53;4890455;29;20313;-74
2022/08/14 00:05:50;;;;;;;10.75;9.65;;;;;;;16.85;100.00;63739.41;4890945;29;20269;-74
2022/08/14 00:08:18;;;;;;;12.10;10.32;;;;;;;16.87;100.00;63744.06;4874294;29;20257;-74
2022/08/14 00:10:45;;;;;;;11.85;10.60;;;;;;;16.84;100.00;63738.38;4872211;29;20266;-75
2022/08/14 00:13:13;;;;;;;11.82;9.70;;;;;;;16.83;100.00;63737.31;4872240;29;20252;-73
2022/08/14 00:15:43;;;;;;;15.82;11.07;;;;;;;16.83;100.00;63739.91;4872464;29;20438;-74
2022/08/14 00:18:12;;;;;;;13.35;11.73;;;;;;;16.77;100.00;63729.06;4872080;29;20304;-74
2022/08/14 00:20:41;;;;;;;14.80;10.68;;;;;;;16.81;100.00;63732.66;4871904;29;20207;-74
2022/08/14 00:23:09;;;;;;;12.23;9.95;;;;;;;16.83;100.00;63740.44;4872385;29;20437;-74
2022/08/14 00:25:38;;;;;;;10.45;9.40;;;;;;;16.77;100.00;63729.06;4872175;29;20263;-73
2022/08/14 00:28:08;;;;;;;10.35;8.75;;;;;;;16.67;100.00;63721.19;4872220;29;20204;-75
2022/08/14 00:30:36;;;;;;;10.57;9.48;;;;;;;16.67;100.00;63720.69;4872042;29;20219;-74
2022/08/14 00:33:03;;;;;;;12.90;9.60;;;;;;;16.62;100.00;63713.44;4871991;29;20454;-74
2022/08/14 00:35:31;;;;;;;12.35;10.23;;;;;;;16.64;100.00;63718.09;4871837;29;20204;-74
2022/08/14 00:37:58;;;;;;;11.40;9.57;;;;;;;16.70;100.00;63726.38;4871752;29;20294;-73
2022/08/14 00:40:25;;;;;;;12.98;9.38;;;;;;;16.69;100.00;63720.72;4871561;29;20230;-74
2022/08/14 00:42:54;;;;;;;15.13;9.75;;;;;;;16.72;100.00;63725.91;4871721;29;20256;-74
2022/08/14 00:45:21;;;;;;;15.10;10.15;;;;;;;16.71;100.00;63722.28;4871637;29;20242;-74
2022/08/14 00:47:49;;;;;;;15.82;11.32;;;;;;;16.71;100.00;63720.22;4872090;29;20291;-74
2022/08/14 00:50:21;;;;;;;15.23;10.50;;;;;;;16.72;100.00;63723.31;4871882;29;20419;-74
2022/08/14 00:52:51;;;;;;;14.10;10.48;;;;;;;16.74;100.00;63730.56;4871619;29;20286;-74
2022/08/14 00:55:20;;;;;;;14.80;11.40;;;;;;;16.75;100.00;63729.53;4871760;29;20377;-73
2022/08/14 00:58:29;;;;;;;10.02;9.05;;;;;;;16.78;100.00;63732.66;4871464;29;20231;-74
2022/08/14 01:00:36;;;;;;;17.17;10.98;;;;;;;16.73;100.00;63724.34;4871457;29;20256;-74
2022/08/14 01:03:04;;;;;;;12.70;10.82;;;;;;;16.72;100.00;63726.41;4871506;29;20256;-74
2022/08/14 01:05:33;;;;;;;12.15;10.88;;;;;;;16.72;100.00;63723.81;4871356;29;20203;-74
2022/08/14 01:08:01;;;;;;;11.50;10.25;;;;;;;16.71;100.00;63725.38;4885678;29;20206;-74
2022/08/14 01:13:15;;;;;;;12.05;10.45;;;;;;;16.71;100.00;63724.84;4889689;29;20304;-73
2022/08/14 01:15:44;;;;;;;16.02;10.27;;;;;;;16.75;100.00;63729.00;4888774;29;20199;-75
2022/08/14 01:21:07;;;;;;;17.13;13.02;;;;;;;16.71;100.00;63722.28;4877966;29;20199;-75
2022/08/14 01:23:39;;;;;;;12.65;10.82;;;;;;;16.60;100.00;63713.41;4889879;29;20242;-74
2022/08/14 01:26:07;;;;;;;16.27;10.80;;;;;;;16.56;100.00;63709.75;4889510;29;20355;-74
2022/08/14 01:28:36;;;;;;;14.52;10.95;;;;;;;16.45;100.00;63700.88;4889517;29;20222;-74
2022/08/14 01:31:07;;;;;;;15.45;11.73;;;;;;;16.36;100.00;63686.34;4889829;29;20504;-74
2022/08/14 01:33:39;;;;;;;19.50;12.82;;;;;;;16.44;100.00;63694.16;4889624;29;20360;-74
2022/08/14 01:36:08;;;;;;;17.80;12.05;;;;;;;16.59;100.00;63715.44;4889354;29;20236;-74
2022/08/14 01:38:41;;;;;;;17.48;12.63;;;;;;;16.63;100.00;63714.47;4889494;29;20295;-74
2022/08/14 01:41:11;;;;;;;19.77;13.13;;;;;;;16.67;100.00;63720.69;4889296;29;20230;-74
2022/08/14 01:43:49;;;;;;;15.38;11.98;;;;;;;16.61;100.00;63714.44;4889348;29;20222;-74
2022/08/14 01:46:17;;;;;;;16.88;12.57;;;;;;;16.68;100.00;63721.72;4889860;29;20210;-74
2022/08/14 01:48:45;;;;;;;24.98;15.20;;;;;;;16.69;100.00;63725.31;4889304;29;20258;-74
2022/08/14 01:51:14;;;;;;;24.23;14.90;;;;;;;16.69;100.00;63722.75;4889357;29;20210;-75
2022/08/14 01:53:45;;;;;;;16.05;13.20;;;;;;;16.68;100.00;63727.41;4889456;29;20246;-76
2022/08/14 01:56:17;;;;;;;17.52;13.95;;;;;;;16.63;100.00;63721.66;4889500;29;20254;-74
2022/08/14 01:58:47;;;;;;;15.15;11.60;;;;;;;16.52;100.00;63707.66;4889192;29;20432;-74
2022/08/14 02:01:16;;;;;;;13.02;11.63;;;;;;;16.29;100.00;63681.66;4889422;29;20460;-75
2022/08/14 02:03:43;;;;;;;14.60;11.50;;;;;;;16.20;100.00;63677.44;4888427;29;20215;-75
2022/08/14 02:06:11;;;;;;;16.77;12.43;;;;;;;16.09;100.00;63658.28;4888971;29;20504;-74
2022/08/14 02:08:39;;;;;;;13.80;10.95;;;;;;;16.06;100.00;63657.72;4889309;29;20462;-75
2022/08/14 02:11:22;;;;;;;14.73;11.93;;;;;;;16.13;100.00;63665.53;4889062;29;20203;-75
2022/08/14 02:13:52;;;;;;;16.98;12.93;;;;;;;16.21;100.00;63675.91;4870943;29;20231;-75
2022/08/14 02:16:24;;;;;;;17.92;13.27;;;;;;;16.28;100.00;63685.22;4870766;29;20192;-75
2022/08/14 02:18:52;;;;;;;19.63;14.48;;;;;;;16.39;100.00;63692.06;4870913;29;20243;-74
2022/08/14 02:21:20;;;;;;;21.10;14.05;;;;;;;16.41;100.00;63691.56;4870494;29;20210;-74
2022/08/14 02:23:48;;;;;;;23.65;14.05;;;;;;;16.45;100.00;63700.34;4869966;29;20564;-76
2022/08/14 02:26:20;;;;;;;19.42;14.90;;;;;;;16.48;100.00;63701.44;4870221;29;20477;-75
2022/08/14 02:28:49;;;;;;;27.42;17.88;;;;;;;16.53;100.00;63708.69;4874524;29;20251;-74
2022/08/14 02:31:16;;;;;;;24.20;14.73;;;;;;;16.55;100.00;63708.72;4874166;29;20225;-75
2022/08/14 02:33:44;;;;;;;19.88;14.25;;;;;;;16.57;100.00;63710.78;4873414;29;20421;-76
2022/08/14 02:36:12;;;;;;;32.65;19.90;;;;;;;16.62;100.00;63712.91;4873862;29;20219;-75
2022/08/14 02:38:40;;;;;;;38.38;21.13;;;;;;;16.60;100.00;63711.34;4874057;29;20280;-75
2022/08/14 02:41:10;;;;;;;22.67;15.65;;;;;;;16.68;100.00;63721.72;4873862;29;20283;-76
2022/08/14 02:43:39;;;;;;;25.40;16.60;;;;;;;16.63;100.00;63719.63;4873767;29;20230;-75
2022/08/14 02:46:08;;;;;;;28.52;17.60;;;;;;;16.69;100.00;63720.72;4874188;29;20211;-74
2022/08/14 02:48:38;;;;;;;29.88;18.30;;;;;;;16.75;100.00;63726.97;4874084;29;20227;-75
2022/08/14 02:51:07;;;;;;;25.40;15.95;;;;;;;16.80;100.00;63739.34;4873980;29;20203;-74
2022/08/14 02:53:34;;;;;;;25.27;16.08;;;;;;;16.74;100.00;63725.41;4873403;29;20646;-74
2022/08/14 02:56:01;;;;;;;20.20;14.80;;;;;;;16.75;100.00;63726.97;4873618;29;20314;-75
2022/08/14 02:58:30;;;;;;;21.55;15.63;;;;;;;16.76;100.00;63727.47;4873713;29;20318;-74
2022/08/14 03:00:59;;;;;;;25.45;15.65;;;;;;;16.71;100.00;63727.41;4873908;29;20347;-75
2022/08/14 03:03:27;;;;;;;34.67;19.27;;;;;;;16.74;100.00;63725.91;4873436;29;20560;-75
2022/08/14 03:05:54;;;;;;;36.58;21.13;;;;;;;16.77;100.00;63731.09;4873712;29;20236;-76
2022/08/14 03:08:30;;;;;;;43.70;22.33;;;;;;;16.80;100.00;63731.63;4890279;29;20223;-74
2022/08/14 03:10:57;;;;;;;48.28;25.73;;;;;;;16.74;100.00;63727.97;4891981;29;20209;-74
2022/08/14 03:13:26;;;;;;;40.97;24.17;;;;;;;16.72;100.00;63723.81;4892249;29;20313;-74
2022/08/14 03:15:54;;;;;;;56.05;24.98;;;;;;;16.68;100.00;63719.16;4891995;29;20226;-77
2022/08/14 03:18:23;;;;;;;46.78;24.48;;;;;;;16.70;100.00;63721.75;4892089;29;20239;-75
2022/08/14 03:20:51;;;;;;;51.90;26.80;;;;;;;16.68;100.00;63722.25;4892089;29;20234;-76
2022/08/14 03:23:19;;;;;;;51.13;26.48;;;;;;;16.67;100.00;63721.19;4891672;29;20229;-75
2022/08/14 03:25:47;;;;;;;45.67;25.27;;;;;;;16.71;100.00;63727.94;4891840;29;20219;-74
2022/08/14 03:28:15;;;;;;;45.70;25.80;;;;;;;16.73;100.00;63727.44;4892077;29;20206;-75
2022/08/14 03:30:43;;;;;;;52.97;26.30;;;;;;;16.77;100.00;63731.63;4891741;29;20215;-76
2022/08/14 03:33:12;;;;;;;53.15;26.35;;;;;;;16.78;100.00;63729.56;4891966;29;20206;-74
2022/08/14 03:35:41;;;;;;;45.97;26.13;;;;;;;16.76;100.00;63732.63;4891511;29;20202;-75
2022/08/14 03:38:09;;;;;;;49.72;25.90;;;;;;;16.61;100.00;63714.97;4890500;29;20426;-75
2022/08/14 03:40:38;;;;;;;48.28;24.50;;;;;;;16.61;100.00;63720.09;4891274;29;20205;-76
2022/08/14 03:43:06;;;;;;;49.15;25.75;;;;;;;16.54;100.00;63707.16;4891314;29;20210;-76
2022/08/14 03:45:34;;;;;;;59.22;25.98;;;;;;;16.51;100.00;63704.03;4891847;29;20211;-74
2022/08/14 03:48:04;;;;;;;54.08;26.60;;;;;;;16.54;100.00;63705.09;4891464;29;20207;-75
2022/08/14 03:50:33;;;;;;;51.53;26.30;;;;;;;16.59;100.00;63704.63;4891345;29;20226;-75
2022/08/14 03:53:03;;;;;;;56.83;26.95;;;;;;;16.67;100.00;63720.69;4890764;29;20202;-75
2022/08/14 03:55:30;;;;;;;41.78;22.90;;;;;;;16.67;100.00;63720.69;4891334;29;20507;-74
2022/08/14 03:57:57;;;;;;;38.85;21.48;;;;;;;16.66;100.00;63715.03;4891639;29;20267;-75
2022/08/14 04:00:24;;;;;;;37.72;22.15;;;;;;;16.70;100.00;63726.91;4891207;29;20273;-75
2022/08/14 04:02:51;;;;;;;30.95;19.08;;;;;;;16.61;100.00;63714.44;4890767;29;20230;-74
2022/08/14 04:05:19;;;;;;;31.42;19.65;;;;;;;16.66;100.00;63719.63;4891127;29;20229;-75
2022/08/14 04:07:46;;;;;;;36.60;20.67;;;;;;;16.82;100.00;63733.72;4891075;29;20247;-76
2022/08/14 04:10:15;;;;;;;37.00;21.20;;;;;;;16.83;100.00;63737.84;4890857;29;20547;-74
2022/08/14 04:12:42;;;;;;;34.45;20.90;;;;;;;16.84;100.00;63738.88;4890824;29;20210;-74
2022/08/14 04:15:10;;;;;;;33.13;20.48;;;;;;;16.93;100.00;63745.69;4891311;29;20526;-74
2022/08/14 04:17:37;;;;;;;31.20;19.08;;;;;;;17.03;100.00;63758.16;4890796;29;20203;-75
2022/08/14 04:20:06;;;;;;;35.22;19.30;;;;;;;17.12;100.00;63768.03;4890931;29;20479;-74
2022/08/14 04:22:34;;;;;;;28.65;19.05;;;;;;;17.16;100.00;63772.19;4890424;29;20203;-76
2022/08/14 04:25:01;;;;;;;28.60;19.10;;;;;;;17.15;100.00;63771.16;4890864;29;20447;-75
2022/08/14 04:27:30;;;;;;;28.60;18.00;;;;;;;17.13;100.00;63763.94;4890616;29;20270;-75
2022/08/14 04:29:57;;;;;;;32.92;23.17;;;;;;;17.10;100.00;63765.94;4890682;29;20238;-75
2022/08/14 04:32:26;;;;;;;35.35;23.15;;;;;;;17.21;100.00;63774.31;4890513;29;20234;-74
2022/08/14 04:34:53;;;;;;;32.63;23.63;;;;;;;17.19;100.00;63777.38;4890789;29;20484;-75
2022/08/14 04:45:40;;;;;;;22.10;17.23;;;;;;;17.34;100.00;63790.94;4890552;29;20246;-75
2022/08/14 04:48:15;;;;;;;21.38;16.42;;;;;;;17.20;100.00;63773.78;4890617;29;20239;-75
2022/08/14 04:50:45;;;;;;;26.40;15.23;;;;;;;17.14;100.00;63767.03;4890147;29;20203;-74
2022/08/14 04:53:14;;;;;;;17.15;15.35;;;;;;;17.07;100.00;63757.69;4890254;29;20203;-75
2022/08/14 04:55:43;;;;;;;19.50;15.32;;;;;;;17.07;100.00;63760.25;4890129;29;20198;-76
2022/08/14 04:58:12;;;;;;;18.50;14.98;;;;;;;17.11;100.00;63764.44;4890619;29;20203;-75
2022/08/14 05:00:40;;;;;;;17.40;13.55;;;;;;;17.24;100.00;63780.53;4889894;29;20242;-75
2022/08/14 05:03:07;;;;;;;16.13;14.43;;;;;;;17.30;100.00;63786.25;4890003;29;20266;-75
2022/08/14 05:05:34;;;;;;;17.73;12.82;;;;;;;17.44;100.00;63800.84;4890335;29;20447;-77
2022/08/14 05:08:11;;;;;;;14.80;13.05;;;;;;;17.61;100.00;63821.13;4876601;29;20238;-75
2022/08/14 05:10:41;;;;;;;16.10;13.55;;;;;;;17.71;100.00;63825.84;4871336;29;20247;-75
2022/08/14 05:13:09;;;;;;;16.58;14.65;;;;;;;17.75;100.00;63832.59;4870935;29;20263;-75
2022/08/14 05:15:39;;;;;;;17.55;14.10;;;;;;;17.73;100.00;63828.47;4871020;29;20384;-75
2022/08/14 05:18:11;;;;;;;14.48;12.63;;;;;;;17.80;100.00;63837.81;4870970;29;20323;-75
2022/08/14 05:20:41;;;;;;;15.88;12.52;;;;;;;17.75;100.00;63830.56;4871063;29;20276;-74
2022/08/14 05:23:08;;;;;;;15.30;13.38;;;;;;;17.75;100.00;63830.03;4870968;29;20204;-75
2022/08/14 05:25:35;;;;;;;17.55;14.02;;;;;;;17.77;100.00;63835.22;4871331;29;20409;-76
2022/08/14 05:28:10;;;;;;;15.90;14.20;;;;;;;17.91;100.00;63847.22;4870944;29;20275;-76
2022/08/14 05:30:43;;;;;;;17.83;15.60;;;;;;;18.03;100.00;63864.88;4871398;29;20523;-76
2022/08/14 05:33:11;;;;;;;20.95;15.00;;;;;;;18.00;100.00;63861.22;4870921;29;20203;-75
2022/08/14 05:35:38;;;;;;;18.00;14.80;;;;;;;18.06;100.00;63862.84;4871055;29;20331;-75
2022/08/14 05:38:08;;;;;;;17.05;15.18;;;;;;;18.03;100.00;63862.28;4870572;29;20207;-74
2022/08/14 05:40:35;;;;;;;18.63;16.63;;;;;;;17.86;100.00;63844.06;4871100;29;20430;-75
2022/08/14 05:43:02;;;;;;;17.08;14.50;;;;;;;17.95;100.00;63851.38;4870831;29;20211;-75
2022/08/14 05:45:29;;;;;;;23.17;16.70;;;;;;;18.10;100.00;63869.06;4871243;29;20211;-75
2022/08/14 05:47:58;;;;;;;17.45;14.77;;;;;;;18.13;100.00;63875.28;4870488;29;20423;-75
2022/08/14 05:50:25;;;;;;;17.63;14.40;;;;;;;18.29;100.00;63886.78;4871281;29;20270;-75
2022/08/14 05:52:52;;;;;;;16.30;13.82;;;;;;;18.42;100.00;63900.38;4870579;29;20268;-75
2022/08/14 05:55:20;;;;;;;18.17;15.02;;;;;;;18.53;100.00;63913.38;4870759;29;20428;-76
2022/08/14 05:57:53;;;;;;;15.48;13.88;;;;;;;18.45;100.00;63905.53;4870868;29;20203;-75
2022/08/14 06:00:23;;;;;;;16.13;13.88;;;;;;;18.41;100.00;63904.47;4870442;29;20338;-76
2022/08/14 06:02:50;;;;;;;21.55;15.35;;;;;;;18.43;100.00;63906.56;4870096;29;20398;-75
2022/08/14 06:05:19;;;;;;;17.17;15.10;;;;;;;18.25;100.00;63885.22;4870697;29;20450;-75
2022/08/14 06:07:46;;;;;;;23.67;15.82;;;;;;;18.22;100.00;63884.16;4882980;29;20278;-75
2022/08/14 06:10:13;;;;;;;19.65;15.50;;;;;;;18.29;100.00;63883.72;4889107;29;20243;-76
2022/08/14 06:12:40;;;;;;;18.35;15.50;;;;;;;18.26;100.00;63888.31;4888876;29;20210;-75
2022/08/14 06:15:08;;;;;;;19.52;15.27;;;;;;;18.29;100.00;63886.78;4889202;29;20215;-76
2022/08/14 06:17:44;;;;;;;22.25;17.15;;;;;;;18.38;100.00;63901.34;4888844;29;20233;-76
2022/08/14 06:20:12;;;;;;;22.25;18.10;;;;;;;18.55;100.00;63913.38;4889489;29;20489;-76
2022/08/14 06:22:42;;;;;;;23.50;18.38;;;;;;;18.68;100.00;63932.09;4889228;29;20251;-76
2022/08/14 06:25:10;;;;;;;24.27;17.83;;;;;;;18.72;100.00;63938.84;4889203;29;20227;-75
2022/08/14 06:27:38;;;;;;;23.55;18.05;;;;;;;18.66;100.00;63924.84;4888943;29;20269;-76
2022/08/14 06:30:08;;;;;;;22.90;18.05;;;;;;;18.72;100.00;63933.16;4889511;29;20227;-75
2022/08/14 06:32:35;;;;;;;23.00;17.70;;;;;;;18.79;100.00;63938.41;4889263;29;20226;-74
2022/08/14 06:35:05;;;;;;;21.48;17.67;;;;;;;18.61;100.00;63919.13;4889602;29;20607;-77
2022/08/14 06:37:41;;;;;;;20.27;16.45;;;;;;;18.56;100.00;63917.00;4889259;29;20202;-77
2022/08/14 06:40:09;;;;;;;22.48;18.55;;;;;;;18.47;100.00;63907.09;4889036;29;20469;-75
2022/08/14 06:42:37;;;;;;;20.10;17.75;;;;;;;18.58;100.00;63916.53;4889732;29;20511;-76
2022/08/14 06:45:04;;;;;;;21.45;17.52;;;;;;;18.45;100.00;63897.31;4889018;29;20262;-78
2022/08/14 06:47:34;;;;;;;22.23;18.05;;;;;;;18.57;100.00;63918.03;4889297;29;20255;-76
2022/08/14 06:50:01;;;;;;;24.63;17.65;;;;;;;18.52;100.00;63907.19;4889336;29;20271;-76
2022/08/14 06:52:28;;;;;;;23.25;18.65;;;;;;;18.49;100.00;63907.13;4889469;29;20246;-76
2022/08/14 06:54:57;;;;;;;23.80;17.98;;;;;;;18.51;100.00;63911.28;4888765;29;20229;-76
2022/08/14 06:57:24;;;;;;;23.98;18.65;;;;;;;18.35;100.00;63890.47;4889001;29;20199;-75
2022/08/14 06:59:51;;;;;;;23.55;18.17;;;;;;;18.48;100.00;63908.69;4888880;29;20243;-76
2022/08/14 07:07:47;;;;;;;24.02;18.50;;;;;;;18.41;100.00;63899.31;4888884;29;20210;-75
2022/08/14 07:10:15;;;;;;;20.02;17.60;;;;;;;18.44;100.00;63904.50;4888596;29;20226;-77
2022/08/14 07:12:42;;;;;;;24.17;18.67;;;;;;;18.75;100.00;63939.41;4889415;29;20210;-75
2022/08/14 07:15:10;;;;;;;23.42;18.08;;;;;;;18.74;100.00;63932.69;4892042;29;20265;-75
2022/08/14 07:17:45;;;;;;;24.27;17.92;;;;;;;18.63;100.00;63928.94;4892085;29;20230;-76
2022/08/14 07:20:12;;;;;;;22.63;17.38;;;;;;;18.65;100.00;63926.41;4891843;29;20242;-76
2022/08/14 07:22:39;;;;;;;23.17;18.33;;;;;;;18.41;100.00;63901.38;4891963;29;20221;-76
2022/08/14 07:25:07;;;;;;;25.48;18.95;;;;;;;18.41;100.00;63901.91;4892765;29;20223;-76
2022/08/14 07:27:35;;;;;;;26.08;18.88;;;;;;;18.34;100.00;63894.06;4891787;29;20270;-76
2022/08/14 07:30:05;;;;;;;25.70;19.27;;;;;;;18.43;100.00;63903.97;4891719;29;20219;-76
2022/08/14 07:32:32;;;;;;;23.85;18.75;;;;;;;18.49;100.00;63909.72;4891982;29;20225;-76
2022/08/14 07:34:59;;;;;;;28.05;19.40;;;;;;;18.30;100.00;63887.31;4892828;29;20238;-75
2022/08/14 07:37:26;;;;;;;27.38;19.65;;;;;;;18.28;100.00;63885.22;4891946;29;20254;-77
2022/08/14 07:39:53;;;;;;;26.70;19.15;;;;;;;18.26;100.00;63883.16;4891804;29;20239;-76
2022/08/14 07:42:21;;;;;;;25.95;18.27;;;;;;;18.51;100.00;63908.69;4891996;29;20531;-75
2022/08/14 07:44:49;;;;;;;24.50;18.42;;;;;;;18.54;100.00;63911.81;4891543;29;20249;-76
2022/08/14 07:47:16;;;;;;;25.45;18.48;;;;;;;18.75;100.00;63938.88;4891751;29;20505;-75
2022/08/14 07:49:52;;;;;;;22.95;18.10;;;;;;;18.91;100.00;63948.34;4892083;29;20286;-76
2022/08/14 07:52:19;;;;;;;21.65;17.33;;;;;;;18.87;100.00;63946.75;4891871;29;20290;-76
2022/08/14 07:54:46;;;;;;;24.58;18.25;;;;;;;18.78;100.00;63942.53;4891824;29;20230;-76
2022/08/14 07:57:15;;;;;;;26.58;17.77;;;;;;;18.80;100.00;63942.03;4891702;29;20198;-76
2022/08/14 07:59:42;;;;;;;25.58;17.77;;;;;;;18.74;100.00;63930.09;4891141;29;20341;-76
2022/08/14 08:02:12;;;;;;;22.13;17.63;;;;;;;18.61;100.00;63924.28;4891673;29;20266;-76
2022/08/14 08:04:43;;;;;;;20.48;16.70;;;;;;;18.68;100.00;63932.09;4892170;29;20294;-78
2022/08/14 08:07:11;;;;;;;20.50;17.23;;;;;;;18.57;100.00;63918.03;4891432;29;20441;-77
2022/08/14 08:09:43;;;;;;;23.23;18.17;;;;;;;18.50;100.00;63907.66;4891149;29;20379;-76
2022/08/14 08:12:11;;;;;;;25.80;18.33;;;;;;;18.45;100.00;63908.13;4891618;29;20262;-76
2022/08/14 08:14:39;;;;;;;25.75;18.23;;;;;;;18.48;100.00;63911.25;4892987;29;20389;-77
2022/08/14 08:17:06;;;;;;;26.85;19.38;;;;;;;18.49;100.00;63906.63;4891428;29;20266;-76
2022/08/14 08:19:36;;;;;;;26.77;19.17;;;;;;;18.35;100.00;63892.53;4891342;29;20302;-76
2022/08/14 08:22:03;;;;;;;28.88;20.27;;;;;;;18.31;100.00;63888.88;4891081;29;20207;-76
2022/08/14 08:24:30;;;;;;;36.22;21.75;;;;;;;18.31;100.00;63896.63;4891706;29;20223;-77
2022/08/14 08:26:58;;;;;;;28.65;22.05;;;;;;;18.34;100.00;63897.16;4891678;29;20238;-76
2022/08/14 08:29:25;;;;;;;33.03;23.52;;;;;;;18.26;100.00;63888.81;4891719;29;20222;-77
2022/08/14 08:31:52;;;;;;;33.58;23.50;;;;;;;18.03;100.00;63861.78;4890976;29;20525;-76
2022/08/14 08:34:20;;;;;;;29.17;22.27;;;;;;;18.24;100.00;63883.66;4891243;29;20261;-77
2022/08/14 08:36:49;;;;;;;34.72;22.83;;;;;;;18.31;100.00;63886.31;4891523;29;20202;-76
2022/08/14 08:39:16;;;;;;;30.73;22.15;;;;;;;18.28;100.00;63885.22;4890712;29;20242;-79
2022/08/14 08:41:45;;;;;;;30.58;21.95;;;;;;;18.39;100.00;63896.69;4892116;29;20257;-76
2022/08/14 08:44:14;;;;;;;27.30;19.92;;;;;;;18.53;100.00;63913.91;4891306;29;20231;-77
2022/08/14 08:46:43;;;;;;;19.88;16.42;;;;;;;18.62;100.00;63922.75;4891523;29;20282;-76
2022/08/14 08:49:11;;;;;;;17.75;15.45;;;;;;;18.69;100.00;63932.63;4890989;29;20446;-76
2022/08/14 08:51:39;;;;;;;16.67;13.80;;;;;;;18.54;100.00;63911.81;4890692;29;20375;-77
2022/08/14 08:54:10;;;;;;;13.88;11.55;;;;;;;18.04;100.00;63863.34;4890351;29;20227;-79
2022/08/14 08:56:42;;;;;;;12.90;11.65;;;;;;;18.08;100.00;63870.09;4891344;29;20197;-76
2022/08/14 08:59:21;;;;;;;13.80;10.63;;;;;;;18.21;100.00;63880.50;4890671;29;20223;-77
2022/08/14 09:01:53;;;;;;;10.60;9.52;;;;;;;18.24;100.00;63884.16;4890711;29;20237;-76
2022/08/14 09:04:21;;;;;;;9.32;8.25;;;;;;;18.31;100.00;63890.94;4890952;29;20230;-77
2022/08/14 09:06:49;;;;;;;8.02;7.32;;;;;;;18.58;100.00;63924.25;4885596;29;20477;-77
2022/08/14 09:09:22;;;;;;;7.40;6.85;;;;;;;18.40;100.00;63900.88;4871389;29;20280;-76
2022/08/14 09:11:53;;;;;;;7.70;6.93;;;;;;;18.34;100.00;63891.50;4871597;29;20223;-77
2022/08/14 09:14:21;;;;;;;7.30;6.60;;;;;;;18.67;100.00;63927.97;4871882;29;20223;-76
2022/08/14 09:16:49;;;;;;;7.65;6.95;;;;;;;18.63;100.00;63923.78;4871662;29;20199;-77
2022/08/14 09:19:25;;;;;;;8.52;7.00;;;;;;;18.94;100.00;63956.63;4872501;29;20222;-75
2022/08/14 09:21:53;;;;;;;9.27;8.38;;;;;;;18.99;100.00;63961.31;4871743;29;20522;-75
2022/08/14 09:24:22;;;;;;;9.57;7.75;;;;;;;18.93;100.00;63953.00;4872103;29;20232;-76
2022/08/14 09:26:49;;;;;;;9.10;8.20;;;;;;;19.00;100.00;63962.34;4871876;29;20495;-76
2022/08/14 09:29:17;;;;;;;8.55;7.75;;;;;;;19.51;100.00;64013.50;4871933;29;20243;-76
2022/08/14 09:31:49;;;;;;;8.45;7.43;;;;;;;19.52;100.00;64008.84;4871671;29;20307;-77
2022/08/14 09:34:30;;;;;;;8.75;7.85;;;;;;;19.41;100.00;64003.06;4872504;29;20258;-76
2022/08/14 09:37:17;;;;;;;9.23;8.05;;;;;;;20.03;100.00;64072.38;4871357;29;20531;-78
2022/08/14 09:39:56;;;;;;;8.88;7.28;;;;;;;20.95;100.00;64167.91;4871300;29;20613;-76
2022/08/14 09:42:35;;;;;;;8.45;7.63;;;;;;;21.32;100.00;64206.56;4871270;29;20207;-76
2022/08/14 09:45:18;;;;;;;9.30;8.40;;;;;;;21.48;100.00;64223.28;4873730;29;20231;-77
2022/08/14 09:47:47;;;;;;;9.30;8.48;;;;;;;21.26;100.00;64197.69;4873109;29;20232;-77
2022/08/14 09:50:24;;;;;;;9.60;8.43;;;;;;;21.69;100.00;64236.91;4872473;29;20280;-77
2022/08/14 09:52:53;;;;;;;9.48;8.57;;;;;;;22.31;100.00;64309.50;4873144;29;20518;-77
2022/08/14 09:55:23;;;;;;;9.82;8.93;;;;;;;22.15;100.00;64290.19;4872084;29;20223;-77
2022/08/14 09:57:51;;;;;;;10.68;9.57;;;;;;;22.25;100.00;64307.91;4872295;29;20211;-76
2022/08/14 10:00:22;;;;;;;9.73;8.93;;;;;;;22.82;100.00;64359.72;4871794;29;20294;-77
2022/08/14 10:02:56;;;;;;;9.13;7.97;;;;;;;23.13;96.54;64397.34;4871751;29;20229;-77
2022/08/14 10:05:32;;;;;;;8.02;7.38;;;;;;;22.89;97.18;64372.25;4872053;29;20271;-77
2022/08/14 10:08:03;;;;;;;7.57;6.82;;;;;;;22.87;93.75;64368.06;4871875;29;20267;-78
2022/08/14 10:10:40;;;;;;;8.85;7.97;;;;;;;21.86;95.19;64259.88;4872263;29;20251;-78
2022/08/14 10:13:20;;;;;;;6.78;6.20;;;;;;;22.04;98.06;64278.69;4873080;29;20214;-78
2022/08/14 10:15:48;;;;;;;6.93;6.32;;;;;;;22.09;95.80;64283.91;4871974;29;20496;-78
2022/08/14 10:18:16;;;;;;;9.55;7.15;;;;;;;22.36;96.69;64312.13;4873372;29;20372;-77
2022/08/14 10:20:54;;;;;;;6.93;6.43;;;;;;;22.37;91.72;64315.78;4872354;29;20241;-78
2022/08/14 10:23:23;;;;;;;6.70;6.20;;;;;;;22.58;92.36;64339.81;4872558;29;20227;-77
2022/08/14 10:25:54;;;;;;;8.68;6.88;;;;;;;22.02;93.16;64276.59;4872484;29;20222;-78
2022/08/14 10:28:22;;;;;;;7.03;6.53;;;;;;;21.87;95.81;64263.00;4872515;29;20263;-78
2022/08/14 10:30:52;;;;;;;7.15;6.55;;;;;;;21.68;97.99;64238.47;4871752;29;20199;-76
2022/08/14 10:33:28;;;;;;;11.40;6.32;;;;;;;21.87;98.34;64263.50;4872121;29;20227;-77
2022/08/14 10:35:55;;;;;;;7.35;6.75;;;;;;;21.75;96.27;64248.91;4872006;29;20243;-79
2022/08/14 10:38:30;;;;;;;7.50;6.80;;;;;;;21.41;98.70;64212.84;4872408;29;20337;-78
2022/08/14 10:41:12;;;;;;;7.57;6.97;;;;;;;21.52;97.23;64224.84;4871588;29;20230;-79
2022/08/14 10:43:41;;;;;;;9.45;8.55;;;;;;;21.57;98.25;64232.66;4871852;29;20234;-78
2022/08/14 10:46:14;;;;;;;8.57;7.82;;;;;;;21.75;98.01;64248.91;4872306;29;20387;-78
2022/08/14 10:48:42;;;;;;;8.57;7.40;;;;;;;21.91;97.54;64262.50;4875429;29;20287;-80
2022/08/14 10:51:09;;;;;;;8.88;8.10;;;;;;;21.16;100.00;64184.13;4875165;29;20263;-79
2022/08/14 10:53:37;;;;;;;9.93;8.38;;;;;;;20.95;100.00;64167.38;4875148;29;20223;-78
2022/08/14 10:56:12;;;;;;;8.38;7.50;;;;;;;21.14;100.00;64185.16;4875708;29;20212;-78
2022/08/14 10:58:39;;;;;;;7.80;7.05;;;;;;;21.20;100.00;64190.91;4875249;29;20234;-77
2022/08/14 11:01:07;;;;;;;10.07;8.65;;;;;;;21.19;100.00;64189.88;4876311;29;20227;-79
2022/08/14 11:03:39;;;;;;;9.25;8.45;;;;;;;21.27;100.00;64200.81;4875682;29;20246;-79
2022/08/14 11:06:18;;;;;;;9.20;8.15;;;;;;;21.46;100.00;64218.59;4875751;29;20439;-78
2022/08/14 11:08:50;;;;;;;10.50;9.50;;;;;;;21.57;99.92;64232.66;4875836;29;20227;-79
2022/08/14 11:11:21;;;;;;;10.15;8.85;;;;;;;21.40;99.92;64214.38;4876234;29;20199;-78
2022/08/14 11:13:49;;;;;;;10.23;8.35;;;;;;;21.32;99.35;64206.03;4876376;29;20284;-78
2022/08/14 11:16:17;;;;;;;9.75;8.00;;;;;;;21.57;99.15;64226.97;4875750;29;20208;-77
2022/08/14 11:18:46;;;;;;;7.07;5.63;;;;;;;21.55;100.00;64230.06;4876339;29;20291;-80
2022/08/14 11:21:16;;;;;;;6.53;6.03;;;;;;;21.04;100.00;64177.31;4875506;29;20238;-77
2022/08/14 11:23:46;;;;;;;6.78;6.05;;;;;;;20.73;100.00;64144.41;4876860;29;20248;-79
2022/08/14 11:26:17;;;;;;;6.43;5.88;;;;;;;21.21;100.00;64189.38;4875454;29;20231;-78
2022/08/14 11:28:51;;;;;;;8.95;5.60;;;;;;;21.61;100.00;64231.16;4875863;29;20466;-79
2022/08/14 11:31:22;;;;;;;6.97;6.38;;;;;;;21.19;97.40;64187.28;4875548;29;20260;-78
2022/08/14 11:33:50;;;;;;;7.03;6.45;;;;;;;20.82;100.00;64154.34;4876572;29;20252;-78
2022/08/14 11:36:17;;;;;;;6.80;6.30;;;;;;;20.42;100.00;64109.97;4874745;29;20227;-79
2022/08/14 11:38:45;;;;;;;7.90;5.68;;;;;;;20.38;100.00;64108.91;4874609;29;20238;-78
2022/08/14 11:41:14;;;;;;;6.65;6.05;;;;;;;20.32;100.00;64104.72;4875092;29;20281;-78
2022/08/14 11:43:43;;;;;;;6.28;5.78;;;;;;;20.60;100.00;64128.78;4875330;29;20231;-79